Time;durP1;ratioP1;P1;durP2;ratioP2;P2;SDS_P1;SDS_P2;PMS_P1;PMS_P2;Temp;Humidity;BMP_temperature;BMP_pressure;BME280_temperature;BME280_humidity;BME280_pressure;Samples;Min_cycle;Max_cycle;Signal;HPM_P1;HPM_P2
2022/04/23 00:00:39;;;;;;;7.93;7.22;;;;;;;;;;5055332;28;20233;-81
2022/04/23 00:03:07;;;;;;;8.07;7.47;;;;;;;;;;5054825;28;20720;-81
2022/04/23 00:05:34;;;;;;;7.97;7.28;;;;;;;;;;5055417;28;20206;-82
2022/04/23 00:08:01;;;;;;;9.98;9.18;;;;;;;;;;5054251;28;20666;-82
2022/04/23 00:10:28;;;;;;;11.18;10.20;;;;;;;;;;5055197;28;20202;-81
2022/04/23 00:12:59;;;;;;;9.77;8.90;;;;;;;;;;5069588;28;20282;-81
2022/04/23 00:15:27;;;;;;;9.82;8.95;;;;;;;;;;5075287;28;20205;-82
2022/04/23 00:17:55;;;;;;;9.77;8.90;;;;;;;;;;5074382;28;20607;-81
2022/04/23 00:20:24;;;;;;;11.27;10.27;;;;;;;;;;5074879;28;20621;-81
2022/04/23 00:22:52;;;;;;;8.48;7.78;;;;;;;;;;5072326;28;20312;-81
2022/04/23 00:25:19;;;;;;;10.00;9.07;;;;;;;;;;5072489;28;20745;-81
2022/04/23 00:27:46;;;;;;;10.02;9.23;;;;;;;;;;5072711;28;20259;-81
2022/04/23 00:30:15;;;;;;;9.35;8.55;;;;;;;;;;5072233;28;20292;-81
2022/04/23 00:32:42;;;;;;;9.48;8.73;;;;;;;;;;5071724;28;20225;-81
2022/04/23 00:35:14;;;;;;;9.55;8.82;;;;;;;;;;5071377;28;20695;-81
2022/04/23 00:37:42;;;;;;;10.30;9.40;;;;;;;;;;5072402;28;20201;-81
2022/04/23 00:40:16;;;;;;;12.30;11.20;;;;;;;;;;5072430;28;20207;-81
2022/04/23 00:42:48;;;;;;;13.18;12.07;;;;;;;;;;5071112;28;20611;-81
2022/04/23 00:45:17;;;;;;;12.63;11.52;;;;;;;;;;5072175;28;20228;-81
2022/04/23 00:47:44;;;;;;;11.70;10.70;;;;;;;;;;5072350;28;20204;-82
2022/04/23 00:50:13;;;;;;;11.63;10.50;;;;;;;;;;5072060;28;20556;-81
2022/04/23 00:52:41;;;;;;;15.32;13.77;;;;;;;;;;5070952;28;20228;-81
2022/04/23 00:55:09;;;;;;;9.98;9.18;;;;;;;;;;5072043;28;20644;-81
2022/04/23 00:57:37;;;;;;;10.65;9.65;;;;;;;;;;5071481;28;20209;-81
2022/04/23 01:00:08;;;;;;;10.82;9.88;;;;;;;;;;5072514;28;20231;-81
2022/04/23 01:02:37;;;;;;;13.30;12.20;;;;;;;;;;5071307;28;20235;-81
2022/04/23 01:05:08;;;;;;;12.27;11.07;;;;;;;;;;5072508;28;20193;-81
2022/04/23 01:07:38;;;;;;;10.70;9.80;;;;;;;;;;5072528;28;20205;-81
2022/04/23 01:10:07;;;;;;;11.18;10.23;;;;;;;;;;5072458;28;20209;-81
2022/04/23 01:12:35;;;;;;;12.65;11.55;;;;;;;;;;5071350;28;20674;-81
2022/04/23 01:15:06;;;;;;;11.23;10.25;;;;;;;;;;5072656;28;20260;-81
2022/04/23 01:17:33;;;;;;;10.60;9.70;;;;;;;;;;5072954;28;20269;-81
2022/04/23 01:20:06;;;;;;;9.27;8.48;;;;;;;;;;5072254;28;20208;-81
2022/04/23 01:22:34;;;;;;;7.80;7.07;;;;;;;;;;5071675;28;20217;-81
2022/04/23 01:25:04;;;;;;;9.68;8.85;;;;;;;;;;5072448;28;20197;-81
2022/04/23 01:27:31;;;;;;;8.30;7.60;;;;;;;;;;5072542;28;20251;-81
2022/04/23 01:29:59;;;;;;;8.63;7.82;;;;;;;;;;5072803;28;20201;-81
2022/04/23 01:32:26;;;;;;;8.13;7.43;;;;;;;;;;5071654;28;20225;-81
2022/04/23 01:34:53;;;;;;;8.60;7.90;;;;;;;;;;5072034;28;20225;-81
2022/04/23 01:37:22;;;;;;;9.75;8.75;;;;;;;;;;5072019;28;20204;-81
2022/04/23 01:39:49;;;;;;;8.00;7.30;;;;;;;;;;5072451;28;20208;-81
2022/04/23 01:42:19;;;;;;;8.32;7.70;;;;;;;;;;5071637;28;20205;-81
2022/04/23 01:44:47;;;;;;;13.07;11.95;;;;;;;;;;5073935;28;20205;-82
2022/04/23 01:47:14;;;;;;;11.60;10.60;;;;;;;;;;5074022;28;20197;-82
2022/04/23 01:49:42;;;;;;;9.43;8.63;;;;;;;;;;5072872;28;20611;-81
2022/04/23 01:52:10;;;;;;;9.13;8.23;;;;;;;;;;5071253;28;20211;-81
2022/04/23 01:54:38;;;;;;;10.05;9.10;;;;;;;;;;5073026;28;20725;-81
2022/04/23 01:57:06;;;;;;;10.75;9.75;;;;;;;;;;5072805;28;20207;-82
2022/04/23 01:59:34;;;;;;;7.80;7.10;;;;;;;;;;5072050;28;20201;-81
2022/04/23 02:02:02;;;;;;;9.30;8.50;;;;;;;;;;5072738;28;20691;-81
2022/04/23 02:04:29;;;;;;;9.00;8.30;;;;;;;;;;5072664;28;20690;-81
2022/04/23 02:06:57;;;;;;;7.63;7.03;;;;;;;;;;5072975;28;20200;-81
2022/04/23 02:09:24;;;;;;;8.20;7.43;;;;;;;;;;5073610;28;20197;-81
2022/04/23 02:11:53;;;;;;;9.40;8.60;;;;;;;;;;5075264;28;20212;-81
2022/04/23 02:14:20;;;;;;;9.32;8.63;;;;;;;;;;5075178;28;20232;-81
2022/04/23 02:16:47;;;;;;;10.23;9.32;;;;;;;;;;5075908;28;20626;-81
2022/04/23 02:19:15;;;;;;;9.30;8.57;;;;;;;;;;5076640;28;20205;-81
2022/04/23 02:21:43;;;;;;;9.20;8.32;;;;;;;;;;5075360;28;20203;-81
2022/04/23 02:24:10;;;;;;;8.15;7.45;;;;;;;;;;5076274;28;20220;-81
2022/04/23 02:26:38;;;;;;;9.48;8.68;;;;;;;;;;5075800;28;20695;-81
2022/04/23 02:29:06;;;;;;;9.45;8.68;;;;;;;;;;5076049;28;20251;-81
2022/04/23 02:31:34;;;;;;;10.65;9.65;;;;;;;;;;5075644;28;20209;-81
2022/04/23 02:34:01;;;;;;;11.70;10.70;;;;;;;;;;5075429;28;20217;-82
2022/04/23 02:36:28;;;;;;;11.13;10.18;;;;;;;;;;5078498;28;20258;-81
2022/04/23 02:38:55;;;;;;;10.15;9.23;;;;;;;;;;5077597;28;20201;-82
2022/04/23 02:41:22;;;;;;;8.95;8.15;;;;;;;;;;5077607;28;20661;-82
2022/04/23 02:43:50;;;;;;;9.45;8.70;;;;;;;;;;5089312;22;20262;-81
2022/04/23 02:46:19;;;;;;;11.90;10.90;;;;;;;;;;5075492;28;20204;-81
2022/04/23 02:48:47;;;;;;;10.73;9.93;;;;;;;;;;5076282;28;20200;-80
2022/04/23 02:51:15;;;;;;;8.15;7.50;;;;;;;;;;5075736;28;20238;-80
2022/04/23 02:53:43;;;;;;;9.35;8.57;;;;;;;;;;5084678;28;20273;-80
2022/04/23 02:56:13;;;;;;;14.10;12.68;;;;;;;;;;5096229;28;20246;-79
2022/04/23 02:58:41;;;;;;;11.60;10.63;;;;;;;;;;5095375;28;20208;-80
2022/04/23 03:01:10;;;;;;;9.75;8.90;;;;;;;;;;5095838;28;20232;-80
2022/04/23 03:03:39;;;;;;;9.13;8.35;;;;;;;;;;5095051;28;20224;-80
2022/04/23 03:06:07;;;;;;;8.48;7.78;;;;;;;;;;5095541;28;20196;-81
2022/04/23 03:08:37;;;;;;;11.07;10.07;;;;;;;;;;5094847;28;20233;-80
2022/04/23 03:11:06;;;;;;;9.40;8.60;;;;;;;;;;5096363;28;20204;-80
2022/04/23 03:13:35;;;;;;;9.70;8.80;;;;;;;;;;5095205;28;21157;-80
2022/04/23 03:16:03;;;;;;;9.55;8.70;;;;;;;;;;5095509;28;20230;-80
2022/04/23 03:18:30;;;;;;;10.93;10.02;;;;;;;;;;5095516;28;20200;-81
2022/04/23 03:20:59;;;;;;;10.77;9.80;;;;;;;;;;5094823;28;20209;-79
2022/04/23 03:23:27;;;;;;;10.68;9.68;;;;;;;;;;5094509;28;20270;-80
2022/04/23 03:25:54;;;;;;;10.70;9.60;;;;;;;;;;5094715;28;20688;-80
2022/04/23 03:28:22;;;;;;;11.68;10.57;;;;;;;;;;5095389;28;20196;-79
2022/04/23 03:30:49;;;;;;;9.63;8.82;;;;;;;;;;5093350;28;20212;-80
2022/04/23 03:33:16;;;;;;;8.27;7.68;;;;;;;;;;5094463;28;20767;-79
2022/04/23 03:35:45;;;;;;;8.80;8.10;;;;;;;;;;5094666;28;20220;-79
2022/04/23 03:38:14;;;;;;;8.55;7.85;;;;;;;;;;5095045;28;20242;-80
2022/04/23 03:40:41;;;;;;;11.63;10.52;;;;;;;;;;5094838;28;20283;-80
2022/04/23 03:43:08;;;;;;;12.55;11.45;;;;;;;;;;5112292;28;20231;-79
2022/04/23 03:45:36;;;;;;;9.98;9.07;;;;;;;;;;5115398;28;20287;-79
2022/04/23 03:48:04;;;;;;;8.73;8.02;;;;;;;;;;5115060;28;20211;-80
2022/04/23 03:50:32;;;;;;;11.15;10.13;;;;;;;;;;5115232;28;20203;-80
2022/04/23 03:53:00;;;;;;;11.68;10.57;;;;;;;;;;5114026;28;20224;-80
2022/04/23 03:55:30;;;;;;;10.07;9.25;;;;;;;;;;5115389;28;20733;-80
2022/04/23 03:57:57;;;;;;;13.13;12.02;;;;;;;;;;5115159;28;20215;-80
2022/04/23 04:00:25;;;;;;;9.55;8.70;;;;;;;;;;5115431;28;20339;-80
2022/04/23 04:02:55;;;;;;;10.00;9.18;;;;;;;;;;5114919;28;20574;-79
2022/04/23 04:05:24;;;;;;;9.73;8.93;;;;;;;;;;5114760;28;20608;-80
2022/04/23 04:07:52;;;;;;;9.50;8.70;;;;;;;;;;5115449;28;20584;-80
2022/04/23 04:10:22;;;;;;;12.10;11.00;;;;;;;;;;5115153;28;20196;-79
2022/04/23 04:12:51;;;;;;;9.32;8.52;;;;;;;;;;5099138;28;20212;-79
2022/04/23 04:15:20;;;;;;;9.43;8.63;;;;;;;;;;5094673;28;20242;-80
2022/04/23 04:17:50;;;;;;;9.30;8.48;;;;;;;;;;5094656;28;20639;-79
2022/04/23 04:20:18;;;;;;;9.68;8.77;;;;;;;;;;5094870;28;20200;-80
2022/04/23 04:22:46;;;;;;;8.88;8.07;;;;;;;;;;5093898;28;20192;-80
2022/04/23 04:25:17;;;;;;;11.25;10.25;;;;;;;;;;5094164;28;20206;-79
2022/04/23 04:27:44;;;;;;;10.77;9.88;;;;;;;;;;5094264;28;20290;-80
2022/04/23 04:30:13;;;;;;;10.63;9.73;;;;;;;;;;5094339;28;20216;-79
2022/04/23 04:32:41;;;;;;;10.73;9.70;;;;;;;;;;5092923;28;20228;-79
2022/04/23 04:35:10;;;;;;;9.82;8.88;;;;;;;;;;5093695;28;20683;-81
2022/04/23 04:37:37;;;;;;;10.32;9.43;;;;;;;;;;5094398;28;20204;-78
2022/04/23 04:40:06;;;;;;;11.15;10.18;;;;;;;;;;5094969;28;20224;-80
2022/04/23 04:42:34;;;;;;;10.68;9.73;;;;;;;;;;5106907;28;20210;-80
2022/04/23 04:45:04;;;;;;;11.07;10.07;;;;;;;;;;5114315;28;20313;-80
2022/04/23 04:47:32;;;;;;;14.13;12.82;;;;;;;;;;5114500;28;20210;-80
2022/04/23 04:50:00;;;;;;;14.15;12.75;;;;;;;;;;5114276;28;20203;-81
2022/04/23 04:52:27;;;;;;;10.77;9.68;;;;;;;;;;5113703;28;20207;-81
2022/04/23 04:54:55;;;;;;;18.08;16.33;;;;;;;;;;5113785;28;20219;-80
2022/04/23 04:57:22;;;;;;;16.42;14.77;;;;;;;;;;5113637;28;20230;-80
2022/04/23 04:59:49;;;;;;;13.38;12.18;;;;;;;;;;5114022;28;20555;-80
2022/04/23 05:02:16;;;;;;;14.23;12.82;;;;;;;;;;5113529;28;20199;-80
2022/04/23 05:04:45;;;;;;;10.10;9.20;;;;;;;;;;5113851;28;20264;-79
2022/04/23 05:07:12;;;;;;;11.55;10.40;;;;;;;;;;5113987;28;20195;-80
2022/04/23 05:09:40;;;;;;;11.60;10.60;;;;;;;;;;5113897;28;20206;-79
2022/04/23 05:12:08;;;;;;;10.68;9.57;;;;;;;;;;5103324;28;20591;-80
2022/04/23 05:14:35;;;;;;;10.77;9.77;;;;;;;;;;5092934;28;20228;-79
2022/04/23 05:17:02;;;;;;;12.63;11.32;;;;;;;;;;5093534;28;20224;-79
2022/04/23 05:19:30;;;;;;;12.27;11.10;;;;;;;;;;5093127;28;20594;-80
2022/04/23 05:21:58;;;;;;;12.10;10.90;;;;;;;;;;5092515;28;20621;-80
2022/04/23 05:24:26;;;;;;;11.73;10.68;;;;;;;;;;5093510;28;20259;-79
2022/04/23 05:26:53;;;;;;;12.45;11.27;;;;;;;;;;5093002;28;20216;-80
2022/04/23 05:29:20;;;;;;;11.98;10.85;;;;;;;;;;5093181;28;20200;-79
2022/04/23 05:31:48;;;;;;;10.77;9.82;;;;;;;;;;5092641;28;20208;-80
2022/04/23 05:34:15;;;;;;;11.60;10.50;;;;;;;;;;5092652;28;20793;-79
2022/04/23 05:36:42;;;;;;;14.73;13.30;;;;;;;;;;5093132;28;20220;-80
2022/04/23 05:39:11;;;;;;;14.90;13.40;;;;;;;;;;5092883;28;20207;-79
2022/04/23 05:41:38;;;;;;;19.92;17.88;;;;;;;;;;5097577;28;20207;-81
2022/04/23 05:44:06;;;;;;;16.80;15.05;;;;;;;;;;5114427;28;20665;-80
2022/04/23 05:46:33;;;;;;;15.43;13.90;;;;;;;;;;5117405;28;20218;-79
2022/04/23 05:49:01;;;;;;;18.50;14.45;;;;;;;;;;5123782;28;20257;-81
2022/04/23 05:51:28;;;;;;;15.15;13.57;;;;;;;;;;5124217;27;20206;-80
2022/04/23 05:53:55;;;;;;;15.75;14.15;;;;;;;;;;5125097;28;20483;-80
2022/04/23 05:56:24;;;;;;;15.45;13.73;;;;;;;;;;5125643;27;20224;-80
2022/04/23 05:58:51;;;;;;;17.52;15.75;;;;;;;;;;5125588;28;20196;-81
2022/04/23 06:01:19;;;;;;;14.07;12.68;;;;;;;;;;5125974;28;20286;-79
2022/04/23 06:03:46;;;;;;;15.52;13.82;;;;;;;;;;5120144;28;20222;-80
2022/04/23 06:06:13;;;;;;;16.70;14.50;;;;;;;;;;5122677;28;20196;-80
2022/04/23 06:08:42;;;;;;;15.95;14.40;;;;;;;;;;5081751;28;20231;-80
2022/04/23 06:11:10;;;;;;;16.38;14.63;;;;;;;;;;5084294;28;20665;-81
2022/04/23 06:13:38;;;;;;;17.60;15.80;;;;;;;;;;5100618;27;20224;-81
2022/04/23 06:16:06;;;;;;;17.85;15.95;;;;;;;;;;5102574;28;20207;-80
2022/04/23 06:18:33;;;;;;;14.90;13.50;;;;;;;;;;5103271;28;20313;-81
2022/04/23 06:21:00;;;;;;;12.98;11.77;;;;;;;;;;5099714;28;20213;-79
2022/04/23 06:23:28;;;;;;;17.50;14.25;;;;;;;;;;5103418;28;20293;-81
2022/04/23 06:25:55;;;;;;;22.85;17.15;;;;;;;;;;5103575;28;20231;-80
2022/04/23 06:28:22;;;;;;;14.48;12.98;;;;;;;;;;5104119;28;20204;-81
2022/04/23 06:30:51;;;;;;;13.70;12.40;;;;;;;;;;5104513;28;20207;-81
2022/04/23 06:33:19;;;;;;;15.35;13.40;;;;;;;;;;5101786;28;20886;-80
2022/04/23 06:35:46;;;;;;;15.60;14.00;;;;;;;;;;5105217;28;20208;-81
2022/04/23 06:38:13;;;;;;;13.77;12.48;;;;;;;;;;5105020;28;20262;-79
2022/04/23 06:40:41;;;;;;;16.23;14.48;;;;;;;;;;5103541;28;20209;-77
2022/04/23 06:43:09;;;;;;;17.45;14.20;;;;;;;;;;5090296;28;20289;-80
2022/04/23 06:45:36;;;;;;;16.15;14.50;;;;;;;;;;5096790;28;20590;-81
2022/04/23 06:48:05;;;;;;;15.77;14.18;;;;;;;;;;5097322;28;20200;-80
2022/04/23 06:50:34;;;;;;;17.05;15.32;;;;;;;;;;5098170;28;20201;-79
2022/04/23 06:53:02;;;;;;;18.10;16.30;;;;;;;;;;5099045;28;20224;-81
2022/04/23 06:55:30;;;;;;;17.92;16.02;;;;;;;;;;5099592;28;20199;-81
2022/04/23 06:57:58;;;;;;;19.20;17.25;;;;;;;;;;5103008;28;20220;-79
2022/04/23 07:00:26;;;;;;;17.05;15.35;;;;;;;;;;5099538;28;20227;-80
2022/04/23 07:02:54;;;;;;;17.17;15.48;;;;;;;;;;5096867;28;20203;-81
2022/04/23 07:05:23;;;;;;;19.38;17.23;;;;;;;;;;5099091;28;20200;-78
2022/04/23 07:07:58;;;;;;;19.23;17.08;;;;;;;;;;5096848;28;20653;-80
2022/04/23 07:10:26;;;;;;;16.35;14.65;;;;;;;;;;5095749;28;20238;-79
2022/04/23 07:12:54;;;;;;;16.60;14.90;;;;;;;;;;5096010;28;20211;-80
2022/04/23 07:15:22;;;;;;;18.65;15.75;;;;;;;;;;5097064;28;20235;-79
2022/04/23 07:17:51;;;;;;;20.00;17.90;;;;;;;;;;5096120;28;20311;-80
2022/04/23 07:20:20;;;;;;;17.33;15.63;;;;;;;;;;5096667;28;20196;-79
2022/04/23 07:25:30;;;;;;;19.27;17.23;;;;;;;;;;5095542;28;20250;-80
2022/04/23 07:27:58;;;;;;;15.98;14.38;;;;;;;;;;5096531;28;20203;-80
2022/04/23 07:30:26;;;;;;;19.25;17.15;;;;;;;;;;5095376;28;20196;-82
2022/04/23 07:32:53;;;;;;;19.02;17.02;;;;;;;;;;5095354;28;20250;-79
2022/04/23 07:38:17;;;;;;;14.27;12.82;;;;;;;;;;5069060;28;20364;-79
2022/04/23 07:40:45;;;;;;;14.23;12.88;;;;;;;;;;5094323;28;20668;-80
2022/04/23 07:43:14;;;;;;;13.20;11.90;;;;;;;;;;5112434;28;20594;-80
2022/04/23 07:45:43;;;;;;;15.23;13.73;;;;;;;;;;5115008;28;20279;-80
2022/04/23 07:48:13;;;;;;;16.83;15.15;;;;;;;;;;5115652;27;20200;-79
2022/04/23 07:50:42;;;;;;;17.52;15.45;;;;;;;;;;5115454;28;20215;-79
2022/04/23 07:53:11;;;;;;;17.15;15.45;;;;;;;;;;5118414;28;20223;-79
2022/04/23 07:55:40;;;;;;;18.98;17.35;;;;;;;;;;5118845;28;20260;-79
2022/04/23 07:58:09;;;;;;;16.73;15.10;;;;;;;;;;5116785;28;20223;-80
2022/04/23 08:00:38;;;;;;;19.17;17.15;;;;;;;;;;5116311;28;20191;-79
2022/04/23 08:03:06;;;;;;;20.65;18.52;;;;;;;;;;5114499;28;20216;-80
2022/04/23 08:05:34;;;;;;;17.90;16.10;;;;;;;;;;5115198;28;20203;-79
2022/04/23 08:08:01;;;;;;;18.23;16.25;;;;;;;;;;5117588;28;20199;-78
2022/04/23 08:10:29;;;;;;;15.98;14.40;;;;;;;;;;5118840;27;20667;-79
2022/04/23 08:12:57;;;;;;;18.90;16.45;;;;;;;;;;5109008;28;20232;-80
2022/04/23 08:15:26;;;;;;;18.13;16.02;;;;;;;;;;5100345;28;20203;-81
2022/04/23 08:17:53;;;;;;;20.15;17.75;;;;;;;;;;5097681;28;20283;-79
2022/04/23 08:20:21;;;;;;;17.98;16.13;;;;;;;;;;5100882;28;20305;-80
2022/04/23 08:22:48;;;;;;;17.85;16.08;;;;;;;;;;5097978;28;20239;-80
2022/04/23 08:25:15;;;;;;;14.85;13.27;;;;;;;;;;5096025;28;20200;-81
2022/04/23 08:27:53;;;;;;;15.00;13.60;;;;;;;;;;5095020;28;20572;-80
2022/04/23 08:30:34;;;;;;;18.00;16.10;;;;;;;;;;5093815;28;20211;-80
2022/04/23 08:33:01;;;;;;;18.27;16.58;;;;;;;;;;5093372;28;20227;-80
2022/04/23 08:35:29;;;;;;;16.88;15.27;;;;;;;;;;5093366;28;20212;-80
2022/04/23 08:37:56;;;;;;;20.67;16.83;;;;;;;;;;5097164;28;20227;-80
2022/04/23 08:40:24;;;;;;;17.33;14.48;;;;;;;;;;5098256;28;20210;-79
2022/04/23 08:42:51;;;;;;;15.57;14.10;;;;;;;;;;5111127;28;20214;-80
2022/04/23 08:45:20;;;;;;;16.77;15.10;;;;;;;;;;5099585;22;20229;-78
2022/04/23 08:47:48;;;;;;;14.80;13.27;;;;;;;;;;5072672;28;20614;-78
2022/04/23 08:50:17;;;;;;;15.27;13.75;;;;;;;;;;5074259;28;20275;-79
2022/04/23 08:52:46;;;;;;;14.68;13.27;;;;;;;;;;5073068;28;20207;-77
2022/04/23 08:55:16;;;;;;;14.85;13.25;;;;;;;;;;5075252;28;20225;-78
2022/04/23 08:57:44;;;;;;;13.55;12.15;;;;;;;;;;5073950;28;20209;-79
2022/04/23 09:00:14;;;;;;;13.07;11.90;;;;;;;;;;5073565;28;20634;-79
2022/04/23 09:02:44;;;;;;;14.57;12.65;;;;;;;;;;5073227;28;20463;-78
2022/04/23 09:05:13;;;;;;;15.20;13.57;;;;;;;;;;5073875;28;20208;-79
2022/04/23 09:07:41;;;;;;;13.90;12.60;;;;;;;;;;5074020;28;20236;-79
2022/04/23 09:10:10;;;;;;;12.50;11.23;;;;;;;;;;5073723;28;20669;-79
2022/04/23 09:12:55;;;;;;;13.80;12.50;;;;;;;;;;5061185;28;20200;-78
2022/04/23 09:24:11;;;;;;;11.40;10.35;;;;;;;;;;5040132;28;20220;-80
2022/04/23 09:26:41;;;;;;;10.43;9.40;;;;;;;;;;5058885;28;20213;-79
2022/04/23 09:29:15;;;;;;;11.07;10.07;;;;;;;;;;5057000;28;20244;-79
2022/04/23 09:31:43;;;;;;;11.50;10.45;;;;;;;;;;5056815;28;20283;-79
2022/04/23 09:34:20;;;;;;;10.75;9.85;;;;;;;;;;5056750;28;20221;-78
2022/04/23 09:36:49;;;;;;;11.32;10.27;;;;;;;;;;5057712;28;20276;-80
2022/04/23 09:39:28;;;;;;;10.02;9.13;;;;;;;;;;5057274;28;20225;-79
2022/04/23 09:41:59;;;;;;;10.82;9.82;;;;;;;;;;5064420;28;20266;-79
2022/04/23 09:44:29;;;;;;;11.38;10.20;;;;;;;;;;5077668;28;20233;-80
2022/04/23 09:46:58;;;;;;;10.65;9.48;;;;;;;;;;5076983;28;20235;-80
2022/04/23 09:49:26;;;;;;;10.60;9.70;;;;;;;;;;5077615;28;20227;-79
2022/04/23 09:52:05;;;;;;;10.40;9.40;;;;;;;;;;5076971;28;20661;-79
2022/04/23 09:54:33;;;;;;;9.38;8.48;;;;;;;;;;5077571;28;20217;-79
2022/04/23 09:57:01;;;;;;;9.20;8.30;;;;;;;;;;5077285;28;20208;-80
2022/04/23 09:59:28;;;;;;;9.18;8.27;;;;;;;;;;5077012;28;20220;-79
2022/04/23 10:01:56;;;;;;;9.10;7.57;;;;;;;;;;5076914;28;20201;-79
2022/04/23 10:04:26;;;;;;;9.40;8.60;;;;;;;;;;5077118;28;20221;-79
2022/04/23 10:06:56;;;;;;;9.77;8.88;;;;;;;;;;5077189;28;20196;-79
2022/04/23 10:09:28;;;;;;;9.82;8.82;;;;;;;;;;5076717;28;20312;-79
2022/04/23 10:12:04;;;;;;;8.90;8.10;;;;;;;;;;5068492;28;20564;-78
2022/04/23 10:14:40;;;;;;;9.13;8.23;;;;;;;;;;5056426;28;20228;-76
2022/04/23 10:17:10;;;;;;;9.15;8.32;;;;;;;;;;5056455;28;20204;-78
2022/04/23 10:19:40;;;;;;;9.05;8.25;;;;;;;;;;5057258;28;20227;-78
2022/04/23 10:22:14;;;;;;;8.65;7.85;;;;;;;;;;5055606;28;20205;-79
2022/04/23 10:24:47;;;;;;;8.20;7.40;;;;;;;;;;5056339;28;20705;-79
2022/04/23 10:27:17;;;;;;;9.48;8.57;;;;;;;;;;5056505;28;20202;-80
2022/04/23 10:29:44;;;;;;;10.15;9.15;;;;;;;;;;5055946;28;20208;-78
2022/04/23 10:32:20;;;;;;;8.25;7.55;;;;;;;;;;5054075;28;20208;-77
2022/04/23 10:34:49;;;;;;;7.05;6.45;;;;;;;;;;5056187;28;20225;-80
2022/04/23 10:37:22;;;;;;;8.20;7.50;;;;;;;;;;5055990;28;20233;-80
2022/04/23 10:40:16;;;;;;;7.72;7.13;;;;;;;;;;5055546;28;20222;-80
2022/04/23 10:43:08;;;;;;;7.85;7.22;;;;;;;;;;5069194;28;20251;-79
2022/04/23 10:45:38;;;;;;;7.93;7.15;;;;;;;;;;5075571;28;20247;-79
2022/04/23 10:48:24;;;;;;;8.23;7.53;;;;;;;;;;5075339;28;20197;-81
2022/04/23 10:51:20;;;;;;;8.70;7.82;;;;;;;;;;5075977;28;20200;-79
2022/04/23 10:53:57;;;;;;;7.15;6.45;;;;;;;;;;5075275;28;20294;-80
2022/04/23 10:56:26;;;;;;;7.65;6.97;;;;;;;;;;5076089;28;20205;-80
2022/04/23 10:58:53;;;;;;;6.85;6.28;;;;;;;;;;5075672;28;20254;-80
2022/04/23 11:01:26;;;;;;;9.18;8.38;;;;;;;;;;5075871;28;20201;-81
2022/04/23 11:04:12;;;;;;;6.35;5.85;;;;;;;;;;5075451;28;20221;-81
2022/04/23 11:12:36;;;;;;;7.75;7.05;;;;;;;;;;5062467;28;20295;-80
2022/04/23 11:15:15;;;;;;;7.18;6.65;;;;;;;;;;5055442;28;20610;-82
2022/04/23 11:17:58;;;;;;;6.95;6.38;;;;;;;;;;5055398;28;20686;-81
2022/04/23 11:20:38;;;;;;;6.55;6.05;;;;;;;;;;5055154;28;20265;-81
2022/04/23 11:23:07;;;;;;;6.55;5.95;;;;;;;;;;5054607;28;20209;-79
2022/04/23 11:25:34;;;;;;;6.78;6.20;;;;;;;;;;5054673;28;20229;-80
2022/04/23 11:28:16;;;;;;;6.30;5.80;;;;;;;;;;5054610;28;20259;-79
2022/04/23 11:30:43;;;;;;;5.80;5.30;;;;;;;;;;5055499;28;20205;-80
2022/04/23 11:33:12;;;;;;;5.82;5.38;;;;;;;;;;5054389;28;20206;-80
2022/04/23 11:35:40;;;;;;;7.30;6.60;;;;;;;;;;5055327;28;20204;-79
2022/04/23 11:38:19;;;;;;;6.57;6.07;;;;;;;;;;5054499;28;20252;-81
2022/04/23 11:40:47;;;;;;;6.53;6.03;;;;;;;;;;5055414;28;20583;-81
2022/04/23 11:43:33;;;;;;;6.07;5.57;;;;;;;;;;5072989;28;20291;-80
2022/04/23 11:46:08;;;;;;;5.25;4.85;;;;;;;;;;5074972;28;20279;-81
2022/04/23 11:48:47;;;;;;;6.82;6.32;;;;;;;;;;5074779;28;20215;-79
2022/04/23 11:51:15;;;;;;;5.38;4.97;;;;;;;;;;5075030;28;20199;-80
2022/04/23 11:53:59;;;;;;;6.72;6.22;;;;;;;;;;5074287;28;20247;-80
2022/04/23 11:56:29;;;;;;;5.93;5.53;;;;;;;;;;5075323;28;20214;-80
2022/04/23 11:58:58;;;;;;;4.68;4.32;;;;;;;;;;5074750;28;20200;-79
2022/04/23 12:01:27;;;;;;;5.60;5.10;;;;;;;;;;5074277;28;20717;-79
2022/04/23 12:03:56;;;;;;;5.38;4.68;;;;;;;;;;5074508;28;20231;-81
2022/04/23 12:06:24;;;;;;;4.85;4.47;;;;;;;;;;5074836;28;20201;-80
2022/04/23 12:08:52;;;;;;;3.63;3.33;;;;;;;;;;5074444;28;20609;-82
2022/04/23 12:11:26;;;;;;;3.45;3.22;;;;;;;;;;5071219;28;20687;-81
2022/04/23 12:13:54;;;;;;;4.55;3.70;;;;;;;;;;5053377;28;20216;-80
2022/04/23 12:16:38;;;;;;;3.53;3.22;;;;;;;;;;5054166;28;20209;-81
2022/04/23 12:19:07;;;;;;;3.38;3.08;;;;;;;;;;5054367;28;20708;-81
2022/04/23 12:21:35;;;;;;;3.60;3.20;;;;;;;;;;5053698;28;20221;-80
2022/04/23 12:24:04;;;;;;;2.70;2.50;;;;;;;;;;5053180;28;20250;-80
2022/04/23 12:26:38;;;;;;;3.33;3.13;;;;;;;;;;5053537;28;20216;-81
2022/04/23 12:43:25;;;;;;;2.28;2.13;;;;;;;;;;5068974;28;20297;-80
2022/04/23 12:46:09;;;;;;;2.97;2.78;;;;;;;;;;5073708;28;20201;-80
2022/04/23 12:49:03;;;;;;;3.03;2.80;;;;;;;;;;5073369;28;20204;-79
2022/04/23 12:51:31;;;;;;;2.80;2.60;;;;;;;;;;5073037;28;20247;-80
2022/04/23 12:53:58;;;;;;;2.50;2.40;;;;;;;;;;5072885;28;20220;-80
2022/04/23 12:56:36;;;;;;;3.10;2.83;;;;;;;;;;5073296;28;20212;-79
2022/04/23 12:59:05;;;;;;;2.97;2.78;;;;;;;;;;5072932;28;20743;-80
2022/04/23 13:01:33;;;;;;;2.75;2.55;;;;;;;;;;5072748;28;20221;-80
2022/04/23 13:04:02;;;;;;;3.10;2.90;;;;;;;;;;5073082;28;20287;-79
2022/04/23 13:09:14;;;;;;;2.70;2.50;;;;;;;;;;5072825;28;20266;-79
2022/04/23 13:11:41;;;;;;;3.38;3.13;;;;;;;;;;5066083;28;20588;-81
2022/04/23 13:14:10;;;;;;;2.67;2.47;;;;;;;;;;5052144;28;20229;-80
2022/04/23 13:16:38;;;;;;;3.17;2.88;;;;;;;;;;5052305;28;20492;-79
2022/04/23 13:19:06;;;;;;;2.85;2.65;;;;;;;;;;5052800;28;20201;-81
2022/04/23 13:21:35;;;;;;;2.67;2.47;;;;;;;;;;5052681;28;20698;-79
2022/04/23 13:24:03;;;;;;;3.47;2.90;;;;;;;;;;5055159;28;20229;-81
2022/04/23 13:26:31;;;;;;;2.72;2.50;;;;;;;;;;5052964;28;20546;-79
2022/04/23 13:28:59;;;;;;;3.20;2.90;;;;;;;;;;5052212;28;20197;-80
2022/04/23 13:31:28;;;;;;;2.92;2.72;;;;;;;;;;5053501;28;20201;-81
2022/04/23 13:33:55;;;;;;;2.60;2.40;;;;;;;;;;5052557;28;20227;-80
2022/04/23 13:36:22;;;;;;;3.03;2.30;;;;;;;;;;5053064;28;20276;-80
2022/04/23 13:38:50;;;;;;;3.15;2.95;;;;;;;;;;5052419;28;20255;-80
2022/04/23 13:41:19;;;;;;;2.80;2.60;;;;;;;;;;5055393;28;20226;-80
2022/04/23 13:43:46;;;;;;;2.50;2.30;;;;;;;;;;5071014;28;20233;-81
2022/04/23 13:46:14;;;;;;;3.17;2.92;;;;;;;;;;5073182;28;20204;-83
2022/04/23 13:48:43;;;;;;;2.88;2.58;;;;;;;;;;5072317;28;20673;-80
2022/04/23 13:51:10;;;;;;;2.78;2.50;;;;;;;;;;5072681;28;20221;-80
2022/04/23 13:53:38;;;;;;;2.72;2.53;;;;;;;;;;5071552;28;20225;-79
2022/04/23 13:56:06;;;;;;;2.97;2.78;;;;;;;;;;5073318;28;20201;-80
2022/04/23 13:58:33;;;;;;;2.92;2.72;;;;;;;;;;5073073;28;20208;-80
2022/04/23 14:01:01;;;;;;;2.40;2.20;;;;;;;;;;5072247;28;20233;-80
2022/04/23 14:11:44;;;;;;;2.15;2.05;;;;;;;;;;5069483;28;20232;-79
2022/04/23 14:14:11;;;;;;;3.00;2.80;;;;;;;;;;5054978;28;20271;-80
2022/04/23 14:16:40;;;;;;;2.60;2.40;;;;;;;;;;5055358;28;20220;-79
2022/04/23 14:19:07;;;;;;;3.00;2.80;;;;;;;;;;5056380;28;20587;-78
2022/04/23 14:21:36;;;;;;;3.13;2.85;;;;;;;;;;5056016;28;20226;-80
2022/04/23 14:24:04;;;;;;;2.83;2.63;;;;;;;;;;5056004;28;20579;-80
2022/04/23 14:26:31;;;;;;;3.53;2.97;;;;;;;;;;5056653;28;20214;-79
2022/04/23 14:28:58;;;;;;;3.08;2.88;;;;;;;;;;5055930;28;20232;-79
2022/04/23 14:31:26;;;;;;;3.15;2.85;;;;;;;;;;5055784;28;20271;-80
2022/04/23 14:33:54;;;;;;;2.70;2.50;;;;;;;;;;5055090;28;20641;-81
2022/04/23 14:36:21;;;;;;;2.83;2.58;;;;;;;;;;5055821;28;20206;-81
2022/04/23 14:38:50;;;;;;;2.50;2.28;;;;;;;;;;5055545;28;20252;-79
2022/04/23 14:41:18;;;;;;;2.75;2.55;;;;;;;;;;5058145;28;20256;-80
2022/04/23 14:43:45;;;;;;;3.00;2.80;;;;;;;;;;5073560;28;20232;-78
2022/04/23 14:46:12;;;;;;;3.35;3.05;;;;;;;;;;5075283;28;20197;-78
2022/04/23 14:48:40;;;;;;;3.00;2.80;;;;;;;;;;5076324;28;20573;-78
2022/04/23 14:53:53;;;;;;;2.72;2.53;;;;;;;;;;5075537;28;20223;-77
2022/04/23 14:56:21;;;;;;;3.25;2.95;;;;;;;;;;5076121;28;20201;-78
2022/04/23 14:58:48;;;;;;;3.35;3.05;;;;;;;;;;5075561;28;20283;-79
2022/04/23 15:01:16;;;;;;;2.85;2.65;;;;;;;;;;5075522;28;20209;-77
2022/04/23 15:03:43;;;;;;;2.33;2.22;;;;;;;;;;5074897;28;20603;-80
2022/04/23 15:06:11;;;;;;;3.28;2.47;;;;;;;;;;5076542;28;20201;-79
2022/04/23 15:08:39;;;;;;;3.10;2.88;;;;;;;;;;5076551;28;20204;-78
2022/04/23 15:11:08;;;;;;;2.80;2.60;;;;;;;;;;5075300;28;20223;-79
2022/04/23 15:13:35;;;;;;;3.50;3.20;;;;;;;;;;5055782;28;20252;-78
2022/04/23 15:16:03;;;;;;;3.33;3.03;;;;;;;;;;5056098;28;20263;-79
2022/04/23 15:18:31;;;;;;;2.75;2.55;;;;;;;;;;5055911;28;20201;-78
2022/04/23 15:20:58;;;;;;;2.95;2.67;;;;;;;;;;5055919;28;20198;-78
2022/04/23 15:23:25;;;;;;;4.07;3.33;;;;;;;;;;5054521;28;20308;-79
2022/04/23 15:25:53;;;;;;;3.33;3.03;;;;;;;;;;5055727;28;20206;-78
2022/04/23 15:28:22;;;;;;;3.05;2.80;;;;;;;;;;5056111;28;20635;-78
2022/04/23 15:30:49;;;;;;;3.35;3.05;;;;;;;;;;5057388;28;20202;-79